createdAt,value
2023-02-01T00:01:11.545Z,5.00
2023-02-01T00:03:38.555Z,5.00
2023-02-01T00:06:05.670Z,5.00
2023-02-01T00:08:32.402Z,5.00
2023-02-01T00:11:01.303Z,5.00
2023-02-01T00:13:33.445Z,5.00
2023-02-01T00:16:08.038Z,5.10
2023-02-01T00:18:35.148Z,5.10
2023-02-01T00:21:02.110Z,5.10
2023-02-01T00:23:28.836Z,5.10
2023-02-01T00:25:55.534Z,5.10
2023-02-01T00:28:22.263Z,5.10
2023-02-01T00:31:00.228Z,5.10
2023-02-01T00:33:27.186Z,5.20
2023-02-01T00:35:59.148Z,5.10
2023-02-01T00:38:27.132Z,5.20
2023-02-01T00:40:54.090Z,5.20
2023-02-01T00:43:20.904Z,5.20
2023-02-01T00:45:47.999Z,5.20
2023-02-01T00:48:14.797Z,5.20
2023-02-01T00:50:44.776Z,5.20
2023-02-01T00:53:12.189Z,5.20
2023-02-01T00:55:39.187Z,5.30
2023-02-01T00:58:07.044Z,5.30
2023-02-01T01:00:34.391Z,5.30
2023-02-01T01:03:01.155Z,5.20
2023-02-01T01:05:28.778Z,5.30
2023-02-01T01:07:55.606Z,5.30
2023-02-01T01:10:22.698Z,5.20
2023-02-01T01:12:49.803Z,5.20
2023-02-01T01:15:16.585Z,5.20
2023-02-01T01:17:43.289Z,5.20
2023-02-01T01:20:10.863Z,5.20
2023-02-01T01:22:37.567Z,5.30
2023-02-01T01:25:04.633Z,5.30
2023-02-01T01:27:31.315Z,5.30
2023-02-01T01:29:58.019Z,5.30
2023-02-01T01:32:24.742Z,5.30
2023-02-01T01:34:51.435Z,5.40
2023-02-01T01:37:18.114Z,5.40
2023-02-01T01:39:44.926Z,5.30
2023-02-01T01:42:14.231Z,5.40
2023-02-01T01:45:01.363Z,5.30
2023-02-01T01:47:35.139Z,5.30
2023-02-01T01:50:03.731Z,5.20
2023-02-01T01:52:30.793Z,5.20
2023-02-01T01:54:59.610Z,5.20
2023-02-01T01:57:30.991Z,5.20
2023-02-01T02:00:08.359Z,5.20
2023-02-01T02:02:36.996Z,5.20
2023-02-01T02:05:04.872Z,5.10
2023-02-01T02:10:06.815Z,5.10
2023-02-01T02:12:33.933Z,5.10
2023-02-01T02:15:00.850Z,5.00
2023-02-01T02:17:55.174Z,5.00
2023-02-01T02:20:48.331Z,4.90
2023-02-01T02:23:30.412Z,4.90
2023-02-01T02:26:14.761Z,4.90
2023-02-01T02:28:44.604Z,4.90
2023-02-01T02:31:20.196Z,4.90
2023-02-01T02:34:11.001Z,4.90
2023-02-01T02:36:49.822Z,4.90
2023-02-01T02:39:47.926Z,4.90
2023-02-01T02:42:45.799Z,4.90
2023-02-01T02:46:01.887Z,4.90
2023-02-01T02:48:45.524Z,5.00
2023-02-01T02:51:47.898Z,5.00
2023-02-01T02:54:37.743Z,5.00
2023-02-01T02:57:27.555Z,5.00
2023-02-01T03:00:14.600Z,5.00
2023-02-01T03:03:00.180Z,5.00
2023-02-01T03:05:33.238Z,5.00
2023-02-01T03:08:24.347Z,5.00
2023-02-01T03:11:11.506Z,5.00
2023-02-01T03:13:40.940Z,5.00
2023-02-01T03:16:07.611Z,5.00
2023-02-01T03:18:34.289Z,5.10
2023-02-01T03:21:05.192Z,5.00
2023-02-01T03:23:35.916Z,5.10
2023-02-01T03:26:05.115Z,5.10
2023-02-01T03:28:35.200Z,5.00
2023-02-01T03:31:03.069Z,5.00
2023-02-01T03:33:31.410Z,5.00
2023-02-01T03:36:10.929Z,5.00
2023-02-01T03:38:46.401Z,5.00
2023-02-01T03:41:28.785Z,5.10
2023-02-01T03:44:02.511Z,5.00
2023-02-01T03:46:37.107Z,5.00
2023-02-01T03:49:08.073Z,5.00
2023-02-01T03:51:36.764Z,5.10
2023-02-01T03:54:06.145Z,5.00
2023-02-01T03:56:37.234Z,5.10
2023-02-01T03:59:04.616Z,5.10
2023-02-01T04:01:32.303Z,5.10
2023-02-01T04:03:59.879Z,5.10
2023-02-01T04:06:26.687Z,5.10
2023-02-01T04:08:53.616Z,5.10
2023-02-01T04:11:20.377Z,5.20
2023-02-01T04:13:47.084Z,5.10
2023-02-01T04:16:13.791Z,5.10
2023-02-01T04:18:40.557Z,5.10
2023-02-01T04:21:07.207Z,5.20
2023-02-01T04:23:33.971Z,5.10
2023-02-01T04:26:02.354Z,5.10
2023-02-01T04:28:29.569Z,5.10
2023-02-01T04:30:56.573Z,5.10
2023-02-01T04:33:23.393Z,5.10
2023-02-01T04:35:50.127Z,5.10
2023-02-01T04:38:17.634Z,5.10
2023-02-01T04:40:44.394Z,5.10
2023-02-01T04:43:11.095Z,5.10
2023-02-01T04:45:37.769Z,5.00
2023-02-01T04:48:04.777Z,5.00
2023-02-01T04:50:31.420Z,5.00
2023-02-01T04:52:58.046Z,5.00
2023-02-01T04:55:24.685Z,5.00
2023-02-01T04:57:51.336Z,5.00
2023-02-01T05:00:18.390Z,4.90
2023-02-01T05:02:45.066Z,4.90
2023-02-01T05:05:11.809Z,4.90
2023-02-01T05:07:38.448Z,4.90
2023-02-01T05:10:05.361Z,4.90
2023-02-01T05:12:50.719Z,4.90
2023-02-01T05:15:17.469Z,4.90
2023-02-01T05:17:44.240Z,4.90
2023-02-01T05:20:11.577Z,4.90
2023-02-01T05:22:38.422Z,5.00
2023-02-01T05:25:08.138Z,5.00
2023-02-01T05:27:36.810Z,5.00
2023-02-01T05:30:05.622Z,5.00
2023-02-01T05:32:32.360Z,4.90
2023-02-01T05:34:59.069Z,4.90
2023-02-01T05:37:25.783Z,4.90
2023-02-01T05:39:52.594Z,4.90
2023-02-01T05:42:19.382Z,4.90
2023-02-01T05:44:46.050Z,4.90
2023-02-01T05:47:13.590Z,4.90
2023-02-01T05:49:40.339Z,4.90
2023-02-01T05:52:07.071Z,4.90
2023-02-01T05:54:33.697Z,4.90
2023-02-01T05:57:00.386Z,4.90
2023-02-01T05:59:27.066Z,4.90
2023-02-01T06:01:53.760Z,4.90
2023-02-01T06:04:20.438Z,4.90
2023-02-01T06:06:47.109Z,4.90
2023-02-01T06:09:13.781Z,4.90
2023-02-01T06:11:41.311Z,5.00
2023-02-01T06:14:08.933Z,5.00
2023-02-01T06:16:35.652Z,5.00
2023-02-01T06:19:02.385Z,5.00
2023-02-01T06:21:29.091Z,5.00
2023-02-01T06:23:55.789Z,5.00
2023-02-01T06:26:22.786Z,5.00
2023-02-01T06:28:49.845Z,5.00
2023-02-01T06:31:16.819Z,5.00
2023-02-01T06:33:43.591Z,5.00
2023-02-01T06:36:13.267Z,5.00
2023-02-01T06:38:40.539Z,5.00
2023-02-01T06:41:07.301Z,4.90
2023-02-01T06:43:34.503Z,4.90
2023-02-01T06:46:06.642Z,4.90
2023-02-01T06:48:34.139Z,4.90
2023-02-01T06:51:01.102Z,4.90
2023-02-01T06:53:28.247Z,4.90
2023-02-01T06:55:59.565Z,4.90
2023-02-01T06:58:32.872Z,4.90
2023-02-01T07:01:05.602Z,4.90
2023-02-01T07:03:32.326Z,4.90
2023-02-01T07:06:02.230Z,4.90
2023-02-01T07:08:30.152Z,4.90
2023-02-01T07:10:56.861Z,4.90
2023-02-01T07:13:23.681Z,4.90
2023-02-01T07:15:50.378Z,4.90
2023-02-01T07:18:17.126Z,4.90
2023-02-01T07:20:44.086Z,4.90
2023-02-01T07:23:13.926Z,4.90
2023-02-01T07:25:40.565Z,4.90
2023-02-01T07:28:07.202Z,5.00
2023-02-01T07:30:33.978Z,5.00
2023-02-01T07:33:02.137Z,5.00
2023-02-01T07:35:29.938Z,5.00
2023-02-01T07:37:58.679Z,5.10
2023-02-01T07:40:31.993Z,5.10
2023-02-01T07:42:58.738Z,5.10
2023-02-01T07:45:25.822Z,5.10
2023-02-01T07:47:54.225Z,5.10
2023-02-01T07:50:21.646Z,5.10
2023-02-01T07:52:48.538Z,5.10
2023-02-01T07:55:15.376Z,5.00
2023-02-01T07:57:42.571Z,5.00
2023-02-01T08:00:28.692Z,5.00
2023-02-01T08:02:55.379Z,5.00
2023-02-01T08:05:22.023Z,5.00
2023-02-01T08:07:52.004Z,5.00
2023-02-01T08:10:19.895Z,5.10
2023-02-01T08:12:48.821Z,5.10
2023-02-01T08:15:18.750Z,5.10
2023-02-01T08:17:52.121Z,5.10
2023-02-01T08:20:20.203Z,5.20
2023-02-01T08:22:47.017Z,5.20
2023-02-01T08:25:14.069Z,5.30
2023-02-01T08:27:40.770Z,5.30
2023-02-01T08:30:08.330Z,5.30
2023-02-01T08:32:35.597Z,5.40
2023-02-01T08:35:03.067Z,5.40
2023-02-01T08:37:30.226Z,5.50
2023-02-01T08:39:56.866Z,5.50
2023-02-01T08:42:42.424Z,5.50
2023-02-01T08:45:09.661Z,5.60
2023-02-01T08:47:36.552Z,5.60
2023-02-01T08:50:03.543Z,5.70
2023-02-01T08:52:30.349Z,5.70
2023-02-01T08:54:56.995Z,5.80
2023-02-01T08:57:24.137Z,5.80
2023-02-01T08:59:50.800Z,5.80
2023-02-01T09:02:18.421Z,5.90
2023-02-01T09:04:45.137Z,6.00
2023-02-01T09:07:13.939Z,6.10
2023-02-01T09:09:40.928Z,6.30
2023-02-01T09:12:07.652Z,6.40
2023-02-01T09:14:34.484Z,6.50
2023-02-01T09:17:01.188Z,6.40
2023-02-01T09:19:27.944Z,6.40
2023-02-01T09:21:54.978Z,6.40
2023-02-01T09:24:21.714Z,6.40
2023-02-01T09:26:48.535Z,6.40
2023-02-01T09:29:15.220Z,6.50
2023-02-01T09:31:49.583Z,6.60
2023-02-01T09:34:20.308Z,6.60
2023-02-01T09:36:46.977Z,6.60
2023-02-01T09:39:13.711Z,6.60
2023-02-01T09:41:49.461Z,6.60
2023-02-01T09:44:42.451Z,6.50
2023-02-01T09:47:22.701Z,6.50
2023-02-01T09:50:05.497Z,6.40
2023-02-01T09:52:54.942Z,6.40
2023-02-01T09:55:37.852Z,6.40
2023-02-01T09:58:15.160Z,6.40
2023-02-01T10:01:06.195Z,6.40
2023-02-01T10:03:37.465Z,6.40
2023-02-01T10:06:31.433Z,6.40
2023-02-01T10:09:32.029Z,6.30
2023-02-01T10:12:32.409Z,6.30
2023-02-01T10:15:10.330Z,6.20
2023-02-01T10:17:57.277Z,6.20
2023-02-01T10:20:31.627Z,6.10
2023-02-01T10:23:32.584Z,6.10
2023-02-01T10:26:06.186Z,6.10
2023-02-01T10:28:37.603Z,6.10
2023-02-01T10:31:04.753Z,6.10
2023-02-01T10:33:37.494Z,6.20
2023-02-01T10:36:09.926Z,6.20
2023-02-01T10:38:36.692Z,6.20
2023-02-01T10:41:12.560Z,6.20
2023-02-01T10:43:40.242Z,6.20
2023-02-01T10:46:08.983Z,6.20
2023-02-01T10:48:36.571Z,6.30
2023-02-01T10:51:25.151Z,6.30
2023-02-01T10:53:54.175Z,6.40
2023-02-01T10:56:29.375Z,6.40
2023-02-01T10:59:07.625Z,6.30
2023-02-01T11:01:46.238Z,6.20
2023-02-01T11:04:21.680Z,6.30
2023-02-01T11:06:55.797Z,6.30
2023-02-01T11:09:24.789Z,6.30
2023-02-01T11:11:51.489Z,6.30
2023-02-01T11:14:25.843Z,6.30
2023-02-01T11:16:57.990Z,6.40
2023-02-01T11:19:24.793Z,6.50
2023-02-01T11:21:57.354Z,6.50
2023-02-01T11:24:27.606Z,6.60
2023-02-01T11:26:58.898Z,6.60
2023-02-01T11:29:30.651Z,6.60
2023-02-01T11:32:01.104Z,6.60
2023-02-01T11:34:37.596Z,6.60
2023-02-01T11:37:05.290Z,6.50
2023-02-01T11:39:34.928Z,6.60
2023-02-01T11:42:15.268Z,6.60
2023-02-01T11:44:47.247Z,6.70
2023-02-01T11:47:39.051Z,6.80
2023-02-01T11:50:16.120Z,6.80
2023-02-01T11:52:54.646Z,6.80
2023-02-01T11:55:33.155Z,6.90
2023-02-01T11:58:18.009Z,7.00
2023-02-01T12:00:51.246Z,7.10
2023-02-01T12:03:36.262Z,7.30
2023-02-01T12:06:17.985Z,7.20
2023-02-01T12:09:03.086Z,7.20
2023-02-01T12:11:49.768Z,7.10
2023-02-01T12:14:52.374Z,7.10
2023-02-01T12:17:30.978Z,7.00
2023-02-01T12:20:19.140Z,7.00
2023-02-01T12:22:54.817Z,6.90
2023-02-01T12:25:45.976Z,7.00
2023-02-01T12:28:31.142Z,7.10
2023-02-01T12:31:10.971Z,7.10
2023-02-01T12:33:43.837Z,7.10
2023-02-01T12:36:43.858Z,7.10
2023-02-01T12:39:24.603Z,7.10
2023-02-01T12:41:59.792Z,7.10
2023-02-01T12:44:47.177Z,7.00
2023-02-01T12:47:50.174Z,7.00
2023-02-01T12:50:33.903Z,7.00
2023-02-01T12:53:20.972Z,6.90
2023-02-01T12:55:57.932Z,7.00
2023-02-01T12:58:42.812Z,6.90
2023-02-01T13:01:26.205Z,6.90
2023-02-01T13:04:03.529Z,6.80
2023-02-01T13:06:39.487Z,6.80
2023-02-01T13:09:09.180Z,6.70
2023-02-01T13:11:39.297Z,6.80
2023-02-01T13:14:34.890Z,6.80
2023-02-01T13:17:15.832Z,6.80
2023-02-01T13:19:51.723Z,6.90
2023-02-01T13:22:28.452Z,6.90
2023-02-01T13:25:04.636Z,6.80
2023-02-01T13:27:31.938Z,6.80
2023-02-01T13:30:06.530Z,6.80
2023-02-01T13:33:51.360Z,6.90
2023-02-01T13:36:16.966Z,6.90
2023-02-01T13:38:52.695Z,6.90
2023-02-01T13:41:27.707Z,6.90
2023-02-01T13:43:59.706Z,6.90
2023-02-01T13:46:27.302Z,7.00
2023-02-01T13:49:01.863Z,7.00
2023-02-01T13:51:45.361Z,7.10
2023-02-01T13:54:40.577Z,7.10
2023-02-01T13:57:35.763Z,7.10
2023-02-01T14:00:35.220Z,7.10
2023-02-01T14:03:07.779Z,7.10
2023-02-01T14:05:37.176Z,7.20
2023-02-01T14:08:03.812Z,7.20
2023-02-01T14:10:45.522Z,7.20
2023-02-01T14:13:33.214Z,7.10
2023-02-01T14:16:06.616Z,7.10
2023-02-01T14:18:36.360Z,7.10
2023-02-01T14:21:24.658Z,7.10
2023-02-01T14:23:59.466Z,7.10
2023-02-01T14:26:44.863Z,7.10
2023-02-01T14:29:21.619Z,7.10
2023-02-01T14:32:03.750Z,7.10
2023-02-01T14:34:45.797Z,7.00
2023-02-01T14:37:28.607Z,7.00
2023-02-01T14:40:07.037Z,7.00
2023-02-01T14:42:42.414Z,6.90
2023-02-01T14:45:24.690Z,6.80
2023-02-01T14:48:07.115Z,6.80
2023-02-01T14:50:33.915Z,6.80
2023-02-01T14:53:09.462Z,6.80
2023-02-01T14:55:50.315Z,6.80
2023-02-01T14:58:42.546Z,6.80
2023-02-01T15:01:32.016Z,6.80
2023-02-01T15:04:12.642Z,6.70
2023-02-01T15:06:39.369Z,6.70
2023-02-01T15:09:21.831Z,6.80
2023-02-01T15:12:15.713Z,6.70
2023-02-01T15:14:51.181Z,6.80
2023-02-01T15:17:23.749Z,6.70
2023-02-01T15:19:59.197Z,6.70
2023-02-01T15:22:30.503Z,6.70
2023-02-01T15:25:00.775Z,6.60
2023-02-01T15:27:32.508Z,6.60
2023-02-01T15:30:09.887Z,6.60
2023-02-01T15:32:41.143Z,6.60
2023-02-01T15:35:38.703Z,6.60
2023-02-01T15:38:33.095Z,6.60
2023-02-01T15:41:02.696Z,6.60
2023-02-01T15:43:33.353Z,6.60
2023-02-01T15:46:02.431Z,6.60
2023-02-01T15:48:58.739Z,6.60
2023-02-01T15:51:27.991Z,6.50
2023-02-01T15:53:59.215Z,6.50
2023-02-01T15:56:28.895Z,6.50
2023-02-01T15:59:02.601Z,6.50
2023-02-01T16:01:30.358Z,6.50
2023-02-01T16:04:24.610Z,6.40
2023-02-01T16:06:57.113Z,6.40
2023-02-01T16:09:35.671Z,6.40
2023-02-01T16:12:04.683Z,6.40
2023-02-01T16:14:32.836Z,6.40
2023-02-01T16:17:00.398Z,6.40
2023-02-01T16:19:29.214Z,6.40
2023-02-01T16:21:56.805Z,6.40
2023-02-01T16:24:25.921Z,6.40
2023-02-01T16:26:53.018Z,6.40
2023-02-01T16:29:19.826Z,6.40
2023-02-01T16:31:46.589Z,6.40
2023-02-01T16:34:19.432Z,6.40
2023-02-01T16:36:53.323Z,6.40
2023-02-01T16:39:21.409Z,6.40
2023-02-01T16:41:48.154Z,6.40
2023-02-01T16:44:14.872Z,6.40
2023-02-01T16:46:45.822Z,6.40
2023-02-01T16:49:26.062Z,6.40
2023-02-01T16:51:57.884Z,6.40
2023-02-01T16:54:24.789Z,6.30
2023-02-01T16:56:51.442Z,6.30
2023-02-01T16:59:18.233Z,6.30
2023-02-01T17:01:44.897Z,6.30
2023-02-01T17:04:12.072Z,6.30
2023-02-01T17:06:40.149Z,6.30
2023-02-01T17:09:07.277Z,6.30
2023-02-01T17:11:34.049Z,6.30
2023-02-01T17:14:22.286Z,6.30
2023-02-01T17:16:50.960Z,6.30
2023-02-01T17:19:23.840Z,6.30
2023-02-01T17:21:54.932Z,6.30
2023-02-01T17:24:24.907Z,6.30
2023-02-01T17:26:52.576Z,6.30
2023-02-01T17:29:19.788Z,6.30
2023-02-01T17:31:50.748Z,6.30
2023-02-01T17:34:18.988Z,6.30
2023-02-01T17:36:47.394Z,6.30
2023-02-01T17:39:35.448Z,6.30
2023-02-01T17:42:03.081Z,6.30
2023-02-01T17:44:29.783Z,6.20
2023-02-01T17:46:57.582Z,6.10
2023-02-01T17:49:24.441Z,6.10
2023-02-01T17:51:51.621Z,6.10
2023-02-01T17:54:20.031Z,6.00
2023-02-01T17:56:48.522Z,6.00
2023-02-01T17:59:15.922Z,6.00
2023-02-01T18:01:42.797Z,6.00
2023-02-01T18:04:13.616Z,6.00
2023-02-01T18:06:40.462Z,6.00
2023-02-01T18:09:07.463Z,6.00
2023-02-01T18:11:34.201Z,6.00
2023-02-01T18:14:00.957Z,6.00
2023-02-01T18:16:35.645Z,6.00
2023-02-01T18:19:02.403Z,6.10
2023-02-01T18:21:42.436Z,6.10
2023-02-01T18:24:19.312Z,6.10
2023-02-01T18:26:46.121Z,6.10
2023-02-01T18:29:13.038Z,6.10
2023-02-01T18:31:47.234Z,6.10
2023-02-01T18:34:21.155Z,6.20
2023-02-01T18:36:49.048Z,6.10
2023-02-01T18:39:16.240Z,6.20
2023-02-01T18:41:44.734Z,6.20
2023-02-01T18:44:15.526Z,6.10
2023-02-01T18:46:42.887Z,6.10
2023-02-01T18:49:13.887Z,6.10
2023-02-01T18:51:40.657Z,6.10
2023-02-01T18:54:10.362Z,6.00
2023-02-01T18:56:37.012Z,6.00
2023-02-01T18:59:03.791Z,6.00
2023-02-01T19:01:30.534Z,6.00
2023-02-01T19:04:05.716Z,6.00
2023-02-01T19:06:35.897Z,6.00
2023-02-01T19:09:02.580Z,6.00
2023-02-01T19:11:29.319Z,6.00
2023-02-01T19:13:55.958Z,5.90
2023-02-01T19:16:22.667Z,5.90
2023-02-01T19:18:53.217Z,5.90
2023-02-01T19:21:20.287Z,5.90
2023-02-01T19:23:46.957Z,5.80
2023-02-01T19:26:16.167Z,5.80
2023-02-01T19:28:47.688Z,5.80
2023-02-01T19:31:15.662Z,5.80
2023-02-01T19:33:42.425Z,5.70
2023-02-01T19:36:10.847Z,5.70
2023-02-01T19:38:38.541Z,5.70
2023-02-01T19:41:05.668Z,5.70
2023-02-01T19:43:32.715Z,5.80
2023-02-01T19:45:59.632Z,5.70
2023-02-01T19:48:26.318Z,5.70
2023-02-01T19:50:54.072Z,5.70
2023-02-01T19:53:24.635Z,5.60
2023-02-01T19:55:51.303Z,5.60
2023-02-01T19:58:18.088Z,5.60
2023-02-01T20:00:43.848Z,5.60
2023-02-01T20:03:10.587Z,5.60
2023-02-01T20:05:37.411Z,5.60
2023-02-01T20:08:04.290Z,5.70
2023-02-01T20:10:31.097Z,5.70
2023-02-01T20:12:57.797Z,5.70
2023-02-01T20:15:26.889Z,5.80
2023-02-01T20:17:53.823Z,5.80
2023-02-01T20:20:20.511Z,5.80
2023-02-01T20:22:47.147Z,5.90
2023-02-01T20:25:13.919Z,5.80
2023-02-01T20:27:41.473Z,5.90
2023-02-01T20:30:09.514Z,5.90
2023-02-01T20:32:36.259Z,5.90
2023-02-01T20:35:02.952Z,5.90
2023-02-01T20:37:29.649Z,5.90
2023-02-01T20:39:56.389Z,5.90
2023-02-01T20:42:23.073Z,5.90
2023-02-01T20:44:49.702Z,5.90
2023-02-01T20:47:16.366Z,5.90
2023-02-01T20:49:43.560Z,5.90
2023-02-01T20:52:10.261Z,5.90
2023-02-01T20:54:38.380Z,6.00
2023-02-01T20:57:05.132Z,6.00
2023-02-01T20:59:32.027Z,6.00
2023-02-01T21:01:59.224Z,6.00
2023-02-01T21:04:27.494Z,6.00
2023-02-01T21:06:58.762Z,6.00
2023-02-01T21:09:26.769Z,6.00
2023-02-01T21:11:54.048Z,6.00
2023-02-01T21:14:20.799Z,6.00
2023-02-01T21:16:48.491Z,6.00
2023-02-01T21:19:16.928Z,6.00
2023-02-01T21:21:43.795Z,6.00
2023-02-01T21:24:10.733Z,6.00
2023-02-01T21:26:43.530Z,6.00
2023-02-01T21:29:12.773Z,6.00
2023-02-01T21:31:40.763Z,6.00
2023-02-01T21:34:08.376Z,6.00
2023-02-01T21:36:35.850Z,6.00
2023-02-01T21:39:04.849Z,6.00
2023-02-01T21:41:51.395Z,6.00
2023-02-01T21:44:18.064Z,6.00
2023-02-01T21:46:45.220Z,6.00
2023-02-01T21:49:12.425Z,6.00
2023-02-01T21:51:39.635Z,6.00
2023-02-01T21:54:08.662Z,6.00
2023-02-01T21:56:36.757Z,6.00
2023-02-01T21:59:03.917Z,6.00
2023-02-01T22:01:30.682Z,5.90
2023-02-01T22:03:57.564Z,5.90
2023-02-01T22:06:26.956Z,5.90
2023-02-01T22:08:54.347Z,5.90
2023-02-01T22:11:21.387Z,5.90
2023-02-01T22:13:48.600Z,5.90
2023-02-01T22:16:17.985Z,5.90
2023-02-01T22:18:45.799Z,5.90
2023-02-01T22:21:12.560Z,5.90
2023-02-01T22:23:39.334Z,5.90
2023-02-01T22:26:11.075Z,5.90
2023-02-01T22:28:39.049Z,5.90
2023-02-01T22:31:07.822Z,5.90
2023-02-01T22:33:34.781Z,5.90
2023-02-01T22:36:02.403Z,5.80
2023-02-01T22:38:33.342Z,5.70
2023-02-01T22:41:02.805Z,5.70
2023-02-01T22:43:30.244Z,5.60
2023-02-01T22:46:04.868Z,5.50
2023-02-01T22:48:34.651Z,5.30
2023-02-01T22:51:02.204Z,5.30
2023-02-01T22:53:31.562Z,5.20
2023-02-01T22:56:02.751Z,5.10
2023-02-01T22:58:29.928Z,5.10
2023-02-01T23:00:56.644Z,5.00
2023-02-01T23:03:24.103Z,4.90
2023-02-01T23:05:50.936Z,4.90
2023-02-01T23:08:17.593Z,4.70
2023-02-01T23:10:44.241Z,4.60
2023-02-01T23:13:10.972Z,4.50
2023-02-01T23:15:39.468Z,4.40
2023-02-01T23:18:06.325Z,4.40
2023-02-01T23:20:32.995Z,4.40
2023-02-01T23:22:59.639Z,4.30
2023-02-01T23:25:26.452Z,4.30
2023-02-01T23:27:53.294Z,4.30
2023-02-01T23:30:20.076Z,4.30
2023-02-01T23:32:46.740Z,4.30
2023-02-01T23:35:13.382Z,4.30
2023-02-01T23:37:40.779Z,4.40
2023-02-01T23:40:07.867Z,4.30
2023-02-01T23:42:35.311Z,4.20
2023-02-01T23:45:02.571Z,4.20
2023-02-01T23:47:29.320Z,4.20
2023-02-01T23:49:56.105Z,4.20
2023-02-01T23:52:22.860Z,4.10
2023-02-01T23:54:49.513Z,4.10
2023-02-01T23:57:16.159Z,4.00
2023-02-01T23:59:42.855Z,4.00
